sensor_id;sensor_type;location;lat;lon;timestamp;pressure;altitude;pressure_sealevel;temperature;humidity
58622;BME280;44389;51.578;5.456;2023-04-15T00:01:52;100660.56;;;6.03;91.32
58622;BME280;44389;51.578;5.456;2023-04-15T00:04:17;100666.19;;;5.96;90.67
58622;BME280;44389;51.578;5.456;2023-04-15T00:06:49;100667.38;;;5.84;90.76
58622;BME280;44389;51.578;5.456;2023-04-15T00:09:15;100661.91;;;5.76;91.57
58622;BME280;44389;51.578;5.456;2023-04-15T00:11:40;100661.47;;;5.85;91.10
58622;BME280;44389;51.578;5.456;2023-04-15T00:14:06;100660.94;;;5.92;92.35
58622;BME280;44389;51.578;5.456;2023-04-15T00:16:31;100663.38;;;5.89;91.44
58622;BME280;44389;51.578;5.456;2023-04-15T00:18:57;100658.38;;;5.92;91.44
58622;BME280;44389;51.578;5.456;2023-04-15T00:21:22;100664.16;;;5.88;91.70
58622;BME280;44389;51.578;5.456;2023-04-15T00:23:47;100664.97;;;5.87;92.30
58622;BME280;44389;51.578;5.456;2023-04-15T00:26:16;100661.75;;;5.91;92.48
58622;BME280;44389;51.578;5.456;2023-04-15T00:28:43;100661.81;;;5.93;92.24
58622;BME280;44389;51.578;5.456;2023-04-15T00:31:08;100655.97;;;5.96;92.50
58622;BME280;44389;51.578;5.456;2023-04-15T00:33:34;100662.56;;;5.90;92.90
58622;BME280;44389;51.578;5.456;2023-04-15T00:36:00;100656.50;;;5.88;92.36
58622;BME280;44389;51.578;5.456;2023-04-15T00:38:27;100654.69;;;5.68;92.83
58622;BME280;44389;51.578;5.456;2023-04-15T00:40:52;100661.22;;;5.61;92.68
58622;BME280;44389;51.578;5.456;2023-04-15T00:43:18;100666.47;;;5.64;93.46
58622;BME280;44389;51.578;5.456;2023-04-15T00:45:43;100663.41;;;5.53;93.27
58622;BME280;44389;51.578;5.456;2023-04-15T00:48:08;100660.50;;;5.46;93.44
58622;BME280;44389;51.578;5.456;2023-04-15T00:50:34;100658.44;;;5.38;93.50
58622;BME280;44389;51.578;5.456;2023-04-15T00:52:59;100659.34;;;5.39;93.41
58622;BME280;44389;51.578;5.456;2023-04-15T00:55:25;100656.69;;;5.55;93.31
58622;BME280;44389;51.578;5.456;2023-04-15T00:57:50;100672.59;;;5.50;93.52
58622;BME280;44389;51.578;5.456;2023-04-15T01:00:16;100663.69;;;5.59;93.23
58622;BME280;44389;51.578;5.456;2023-04-15T01:02:42;100664.88;;;5.48;93.47
58622;BME280;44389;51.578;5.456;2023-04-15T01:05:07;100669.38;;;5.36;93.13
58622;BME280;44389;51.578;5.456;2023-04-15T01:07:33;100661.28;;;5.26;93.49
58622;BME280;44389;51.578;5.456;2023-04-15T01:09:59;100657.13;;;5.28;93.83
58622;BME280;44389;51.578;5.456;2023-04-15T01:12:25;100654.94;;;5.18;93.71
58622;BME280;44389;51.578;5.456;2023-04-15T01:14:52;100651.72;;;5.22;93.76
58622;BME280;44389;51.578;5.456;2023-04-15T01:17:18;100649.78;;;5.17;93.81
58622;BME280;44389;51.578;5.456;2023-04-15T01:19:43;100656.75;;;5.03;94.00
58622;BME280;44389;51.578;5.456;2023-04-15T01:22:09;100657.84;;;5.08;94.51
58622;BME280;44389;51.578;5.456;2023-04-15T01:24:35;100653.91;;;4.97;94.54
58622;BME280;44389;51.578;5.456;2023-04-15T01:27:01;100653.09;;;4.98;95.07
58622;BME280;44389;51.578;5.456;2023-04-15T01:29:31;100651.06;;;5.08;94.86
58622;BME280;44389;51.578;5.456;2023-04-15T01:31:56;100659.59;;;4.91;95.25
58622;BME280;44389;51.578;5.456;2023-04-15T01:34:22;100659.16;;;5.00;95.24
58622;BME280;44389;51.578;5.456;2023-04-15T01:36:47;100654.63;;;4.94;95.74
58622;BME280;44389;51.578;5.456;2023-04-15T01:39:13;100664.41;;;5.03;95.72
58622;BME280;44389;51.578;5.456;2023-04-15T01:41:38;100659.72;;;4.94;95.20
58622;BME280;44389;51.578;5.456;2023-04-15T01:44:05;100656.59;;;4.82;95.81
58622;BME280;44389;51.578;5.456;2023-04-15T01:46:31;100656.34;;;4.77;96.38
58622;BME280;44389;51.578;5.456;2023-04-15T01:48:56;100653.59;;;4.90;96.41
58622;BME280;44389;51.578;5.456;2023-04-15T01:51:21;100649.47;;;4.76;96.52
58622;BME280;44389;51.578;5.456;2023-04-15T01:53:47;100656.97;;;4.89;96.99
58622;BME280;44389;51.578;5.456;2023-04-15T01:56:12;100653.13;;;4.81;97.29
58622;BME280;44389;51.578;5.456;2023-04-15T01:58:38;100652.41;;;4.84;96.97
58622;BME280;44389;51.578;5.456;2023-04-15T02:01:04;100647.72;;;4.75;97.30
58622;BME280;44389;51.578;5.456;2023-04-15T02:03:30;100653.31;;;4.84;97.18
58622;BME280;44389;51.578;5.456;2023-04-15T02:05:55;100652.34;;;4.82;97.07
58622;BME280;44389;51.578;5.456;2023-04-15T02:08:20;100647.72;;;4.75;97.10
58622;BME280;44389;51.578;5.456;2023-04-15T02:10:46;100657.47;;;4.66;97.27
58622;BME280;44389;51.578;5.456;2023-04-15T02:13:12;100657.34;;;4.63;98.00
58622;BME280;44389;51.578;5.456;2023-04-15T02:15:38;100663.75;;;4.72;98.21
58622;BME280;44389;51.578;5.456;2023-04-15T02:18:03;100658.06;;;4.60;98.11
58622;BME280;44389;51.578;5.456;2023-04-15T02:20:28;100669.84;;;4.58;98.04
58622;BME280;44389;51.578;5.456;2023-04-15T02:22:57;100667.53;;;4.63;98.72
58622;BME280;44389;51.578;5.456;2023-04-15T02:25:22;100666.50;;;4.59;98.48
58622;BME280;44389;51.578;5.456;2023-04-15T02:27:47;100666.50;;;4.59;98.98
58622;BME280;44389;51.578;5.456;2023-04-15T02:30:12;100672.66;;;4.63;99.46
58622;BME280;44389;51.578;5.456;2023-04-15T02:32:39;100672.47;;;4.59;99.73
58622;BME280;44389;51.578;5.456;2023-04-15T02:35:06;100671.38;;;4.54;100.00
58622;BME280;44389;51.578;5.456;2023-04-15T02:37:32;100674.50;;;4.49;100.00
58622;BME280;44389;51.578;5.456;2023-04-15T02:40:01;100676.31;;;4.51;100.00
58622;BME280;44389;51.578;5.456;2023-04-15T02:42:26;100679.28;;;4.42;100.00
58622;BME280;44389;51.578;5.456;2023-04-15T02:44:54;100686.22;;;4.45;100.00
58622;BME280;44389;51.578;5.456;2023-04-15T02:47:20;100682.06;;;4.47;100.00
58622;BME280;44389;51.578;5.456;2023-04-15T02:49:45;100685.56;;;4.49;100.00
58622;BME280;44389;51.578;5.456;2023-04-15T02:52:10;100689.88;;;4.50;100.00
58622;BME280;44389;51.578;5.456;2023-04-15T02:54:36;100693.88;;;4.61;100.00
58622;BME280;44389;51.578;5.456;2023-04-15T02:57:01;100697.94;;;4.41;100.00
58622;BME280;44389;51.578;5.456;2023-04-15T02:59:26;100692.34;;;4.49;100.00
58622;BME280;44389;51.578;5.456;2023-04-15T03:01:52;100693.72;;;4.42;100.00
58622;BME280;44389;51.578;5.456;2023-04-15T03:04:17;100699.22;;;4.33;100.00
58622;BME280;44389;51.578;5.456;2023-04-15T03:06:42;100690.78;;;4.34;100.00
58622;BME280;44389;51.578;5.456;2023-04-15T03:09:08;100687.72;;;4.41;100.00
58622;BME280;44389;51.578;5.456;2023-04-15T03:11:34;100695.56;;;4.44;100.00
58622;BME280;44389;51.578;5.456;2023-04-15T03:14:01;100698.16;;;4.29;100.00
58622;BME280;44389;51.578;5.456;2023-04-15T03:16:26;100696.91;;;4.21;100.00
58622;BME280;44389;51.578;5.456;2023-04-15T03:18:51;100696.50;;;4.14;100.00
58622;BME280;44389;51.578;5.456;2023-04-15T03:21:17;100698.34;;;4.16;100.00
58622;BME280;44389;51.578;5.456;2023-04-15T03:23:43;100693.53;;;4.06;100.00
58622;BME280;44389;51.578;5.456;2023-04-15T03:26:09;100697.75;;;4.05;100.00
58622;BME280;44389;51.578;5.456;2023-04-15T03:28:34;100708.66;;;4.03;100.00
58622;BME280;44389;51.578;5.456;2023-04-15T03:31:00;100699.16;;;4.00;100.00
58622;BME280;44389;51.578;5.456;2023-04-15T03:33:25;100703.56;;;4.03;100.00
58622;BME280;44389;51.578;5.456;2023-04-15T03:35:52;100712.19;;;4.05;100.00
58622;BME280;44389;51.578;5.456;2023-04-15T03:38:17;100714.44;;;4.15;100.00
58622;BME280;44389;51.578;5.456;2023-04-15T03:40:43;100716.63;;;4.09;100.00
58622;BME280;44389;51.578;5.456;2023-04-15T03:43:08;100719.69;;;4.02;100.00
58622;BME280;44389;51.578;5.456;2023-04-15T03:45:34;100721.09;;;4.13;100.00
58622;BME280;44389;51.578;5.456;2023-04-15T03:47:59;100724.63;;;4.15;100.00
58622;BME280;44389;51.578;5.456;2023-04-15T03:50:25;100727.47;;;4.05;100.00
58622;BME280;44389;51.578;5.456;2023-04-15T03:52:50;100727.31;;;4.02;100.00
58622;BME280;44389;51.578;5.456;2023-04-15T03:55:16;100734.22;;;3.88;100.00
58622;BME280;44389;51.578;5.456;2023-04-15T03:57:41;100739.84;;;3.82;100.00
58622;BME280;44389;51.578;5.456;2023-04-15T04:00:07;100742.50;;;3.69;100.00
58622;BME280;44389;51.578;5.456;2023-04-15T04:02:34;100743.84;;;3.62;100.00
58622;BME280;44389;51.578;5.456;2023-04-15T04:04:59;100743.50;;;3.71;100.00
58622;BME280;44389;51.578;5.456;2023-04-15T04:07:25;100754.97;;;3.79;100.00
58622;BME280;44389;51.578;5.456;2023-04-15T04:09:50;100753.41;;;3.66;100.00
58622;BME280;44389;51.578;5.456;2023-04-15T04:12:16;100763.09;;;3.57;100.00
58622;BME280;44389;51.578;5.456;2023-04-15T04:14:41;100769.84;;;3.56;100.00
58622;BME280;44389;51.578;5.456;2023-04-15T04:17:06;100766.44;;;3.56;100.00
58622;BME280;44389;51.578;5.456;2023-04-15T04:19:32;100765.47;;;3.54;100.00
58622;BME280;44389;51.578;5.456;2023-04-15T04:21:57;100775.66;;;3.54;100.00
58622;BME280;44389;51.578;5.456;2023-04-15T04:24:23;100784.19;;;3.54;100.00
58622;BME280;44389;51.578;5.456;2023-04-15T04:26:48;100775.06;;;3.43;100.00
58622;BME280;44389;51.578;5.456;2023-04-15T04:29:13;100781.03;;;3.43;100.00
58622;BME280;44389;51.578;5.456;2023-04-15T04:31:38;100784.53;;;3.45;100.00
58622;BME280;44389;51.578;5.456;2023-04-15T04:34:04;100793.09;;;3.46;100.00
58622;BME280;44389;51.578;5.456;2023-04-15T04:36:29;100800.16;;;3.37;100.00
58622;BME280;44389;51.578;5.456;2023-04-15T04:38:54;100798.25;;;3.48;100.00
58622;BME280;44389;51.578;5.456;2023-04-15T04:41:20;100805.81;;;3.46;100.00
58622;BME280;44389;51.578;5.456;2023-04-15T04:43:45;100809.16;;;3.45;100.00
58622;BME280;44389;51.578;5.456;2023-04-15T04:46:11;100808.88;;;3.55;100.00
58622;BME280;44389;51.578;5.456;2023-04-15T04:48:36;100808.44;;;3.62;100.00
58622;BME280;44389;51.578;5.456;2023-04-15T04:51:02;100815.44;;;3.67;100.00
58622;BME280;44389;51.578;5.456;2023-04-15T04:53:27;100816.50;;;3.70;100.00
58622;BME280;44389;51.578;5.456;2023-04-15T04:55:52;100814.25;;;3.75;100.00
58622;BME280;44389;51.578;5.456;2023-04-15T04:58:18;100819.69;;;3.81;100.00
58622;BME280;44389;51.578;5.456;2023-04-15T05:00:43;100830.03;;;3.84;100.00
58622;BME280;44389;51.578;5.456;2023-04-15T05:03:08;100831.03;;;3.86;100.00
58622;BME280;44389;51.578;5.456;2023-04-15T05:05:34;100830.41;;;3.90;100.00
58622;BME280;44389;51.578;5.456;2023-04-15T05:08:01;100831.47;;;3.94;100.00
58622;BME280;44389;51.578;5.456;2023-04-15T05:10:26;100827.22;;;3.94;100.00
58622;BME280;44389;51.578;5.456;2023-04-15T05:12:51;100837.56;;;3.98;100.00
58622;BME280;44389;51.578;5.456;2023-04-15T05:15:17;100836.00;;;4.00;100.00
58622;BME280;44389;51.578;5.456;2023-04-15T05:17:42;100838.13;;;4.07;100.00
58622;BME280;44389;51.578;5.456;2023-04-15T05:20:07;100849.91;;;4.05;100.00
58622;BME280;44389;51.578;5.456;2023-04-15T05:22:33;100852.31;;;4.18;100.00
58622;BME280;44389;51.578;5.456;2023-04-15T05:24:59;100865.19;;;4.20;100.00
58622;BME280;44389;51.578;5.456;2023-04-15T05:27:24;100865.25;;;4.21;100.00
58622;BME280;44389;51.578;5.456;2023-04-15T05:29:50;100874.69;;;4.22;100.00
58622;BME280;44389;51.578;5.456;2023-04-15T05:32:15;100873.88;;;4.23;100.00
58622;BME280;44389;51.578;5.456;2023-04-15T05:34:41;100882.91;;;4.33;100.00
58622;BME280;44389;51.578;5.456;2023-04-15T05:37:06;100874.41;;;4.33;100.00
58622;BME280;44389;51.578;5.456;2023-04-15T05:39:32;100884.84;;;4.37;100.00
58622;BME280;44389;51.578;5.456;2023-04-15T05:41:58;100881.59;;;4.40;100.00
58622;BME280;44389;51.578;5.456;2023-04-15T05:44:24;100892.41;;;4.36;100.00
58622;BME280;44389;51.578;5.456;2023-04-15T05:46:49;100888.88;;;4.34;100.00
58622;BME280;44389;51.578;5.456;2023-04-15T05:49:14;100897.53;;;4.36;100.00
58622;BME280;44389;51.578;5.456;2023-04-15T05:51:40;100902.78;;;4.39;100.00
58622;BME280;44389;51.578;5.456;2023-04-15T05:54:05;100904.31;;;4.35;100.00
58622;BME280;44389;51.578;5.456;2023-04-15T05:56:30;100907.47;;;4.31;100.00
58622;BME280;44389;51.578;5.456;2023-04-15T05:58:56;100914.59;;;4.37;100.00
58622;BME280;44389;51.578;5.456;2023-04-15T06:01:21;100911.97;;;4.35;100.00
58622;BME280;44389;51.578;5.456;2023-04-15T06:03:47;100912.91;;;4.37;100.00
58622;BME280;44389;51.578;5.456;2023-04-15T06:06:12;100914.31;;;4.32;100.00
58622;BME280;44389;51.578;5.456;2023-04-15T06:08:38;100923.53;;;4.45;100.00
58622;BME280;44389;51.578;5.456;2023-04-15T06:11:03;100926.88;;;4.44;100.00
58622;BME280;44389;51.578;5.456;2023-04-15T06:13:29;100927.41;;;4.53;100.00
58622;BME280;44389;51.578;5.456;2023-04-15T06:15:54;100931.97;;;4.59;100.00
58622;BME280;44389;51.578;5.456;2023-04-15T06:18:19;100934.78;;;4.64;100.00
58622;BME280;44389;51.578;5.456;2023-04-15T06:20:45;100936.63;;;4.66;100.00
58622;BME280;44389;51.578;5.456;2023-04-15T06:23:10;100941.09;;;4.70;100.00
58622;BME280;44389;51.578;5.456;2023-04-15T06:25:36;100957.00;;;4.81;100.00
58622;BME280;44389;51.578;5.456;2023-04-15T06:28:01;100959.03;;;4.87;100.00
58622;BME280;44389;51.578;5.456;2023-04-15T06:30:26;100965.41;;;4.95;100.00
58622;BME280;44389;51.578;5.456;2023-04-15T06:32:52;100965.19;;;5.07;100.00
58622;BME280;44389;51.578;5.456;2023-04-15T06:35:17;100968.50;;;5.21;100.00
58622;BME280;44389;51.578;5.456;2023-04-15T06:37:43;100965.84;;;5.36;100.00
58622;BME280;44389;51.578;5.456;2023-04-15T06:40:08;100974.56;;;5.56;100.00
58622;BME280;44389;51.578;5.456;2023-04-15T06:42:34;100976.16;;;5.70;100.00
58622;BME280;44389;51.578;5.456;2023-04-15T06:45:01;100983.69;;;5.84;100.00
58622;BME280;44389;51.578;5.456;2023-04-15T06:47:26;100975.56;;;5.92;100.00
58622;BME280;44389;51.578;5.456;2023-04-15T06:49:51;100982.00;;;6.01;100.00
58622;BME280;44389;51.578;5.456;2023-04-15T06:52:16;100990.44;;;6.16;100.00
58622;BME280;44389;51.578;5.456;2023-04-15T06:54:42;100990.75;;;6.22;100.00
58622;BME280;44389;51.578;5.456;2023-04-15T06:57:07;100993.09;;;6.36;100.00
58622;BME280;44389;51.578;5.456;2023-04-15T06:59:33;101010.66;;;6.46;100.00
58622;BME280;44389;51.578;5.456;2023-04-15T07:01:59;101010.56;;;6.61;100.00
58622;BME280;44389;51.578;5.456;2023-04-15T07:04:24;101013.63;;;6.72;100.00
58622;BME280;44389;51.578;5.456;2023-04-15T07:06:50;101011.72;;;6.86;100.00
58622;BME280;44389;51.578;5.456;2023-04-15T07:09:15;101019.97;;;6.98;100.00
58622;BME280;44389;51.578;5.456;2023-04-15T07:11:40;101026.34;;;7.06;100.00
58622;BME280;44389;51.578;5.456;2023-04-15T07:14:06;101031.72;;;7.13;100.00
58622;BME280;44389;51.578;5.456;2023-04-15T07:16:31;101028.66;;;7.20;100.00
58622;BME280;44389;51.578;5.456;2023-04-15T07:18:56;101034.19;;;7.29;100.00
58622;BME280;44389;51.578;5.456;2023-04-15T07:21:23;101033.75;;;7.38;100.00
58622;BME280;44389;51.578;5.456;2023-04-15T07:23:48;101033.88;;;7.41;100.00
58622;BME280;44389;51.578;5.456;2023-04-15T07:26:14;101037.81;;;7.52;100.00
58622;BME280;44389;51.578;5.456;2023-04-15T07:28:39;101043.50;;;7.65;100.00
58622;BME280;44389;51.578;5.456;2023-04-15T07:31:04;101043.97;;;7.75;100.00
58622;BME280;44389;51.578;5.456;2023-04-15T07:33:29;101047.81;;;7.85;100.00
58622;BME280;44389;51.578;5.456;2023-04-15T07:35:55;101057.63;;;7.94;98.63
58622;BME280;44389;51.578;5.456;2023-04-15T07:38:20;101063.28;;;8.06;98.94
58622;BME280;44389;51.578;5.456;2023-04-15T07:40:46;101066.56;;;8.23;99.49
58622;BME280;44389;51.578;5.456;2023-04-15T07:43:12;101074.59;;;8.31;96.16
58622;BME280;44389;51.578;5.456;2023-04-15T07:45:37;101073.72;;;8.31;94.00
58622;BME280;44389;51.578;5.456;2023-04-15T07:48:03;101076.34;;;8.32;93.27
58622;BME280;44389;51.578;5.456;2023-04-15T07:50:28;101081.53;;;8.34;92.39
58622;BME280;44389;51.578;5.456;2023-04-15T07:52:54;101080.03;;;8.39;93.08
58622;BME280;44389;51.578;5.456;2023-04-15T07:55:19;101075.19;;;8.45;93.62
58622;BME280;44389;51.578;5.456;2023-04-15T07:57:47;101080.94;;;8.59;94.50
58622;BME280;44389;51.578;5.456;2023-04-15T08:00:13;101086.38;;;8.67;94.47
58622;BME280;44389;51.578;5.456;2023-04-15T08:02:39;101090.97;;;8.74;92.37
58622;BME280;44389;51.578;5.456;2023-04-15T08:05:05;101098.78;;;8.77;91.86
58622;BME280;44389;51.578;5.456;2023-04-15T08:07:31;101095.59;;;8.83;90.76
58622;BME280;44389;51.578;5.456;2023-04-15T08:09:57;101102.00;;;8.93;89.60
58622;BME280;44389;51.578;5.456;2023-04-15T08:12:22;101096.41;;;9.03;90.21
58622;BME280;44389;51.578;5.456;2023-04-15T08:14:49;101100.84;;;9.07;89.20
58622;BME280;44389;51.578;5.456;2023-04-15T08:17:14;101104.47;;;9.12;87.47
58622;BME280;44389;51.578;5.456;2023-04-15T08:19:40;101110.88;;;9.22;88.64
58622;BME280;44389;51.578;5.456;2023-04-15T08:22:06;101118.75;;;9.27;86.31
58622;BME280;44389;51.578;5.456;2023-04-15T08:24:31;101119.59;;;9.48;85.93
58622;BME280;44389;51.578;5.456;2023-04-15T08:26:57;101123.69;;;9.66;86.53
58622;BME280;44389;51.578;5.456;2023-04-15T08:29:22;101125.22;;;9.85;85.72
58622;BME280;44389;51.578;5.456;2023-04-15T08:31:48;101128.50;;;10.03;85.16
58622;BME280;44389;51.578;5.456;2023-04-15T08:34:13;101126.34;;;10.16;83.37
58622;BME280;44389;51.578;5.456;2023-04-15T08:36:39;101133.44;;;10.21;79.94
58622;BME280;44389;51.578;5.456;2023-04-15T08:39:05;101146.72;;;10.34;81.35
58622;BME280;44389;51.578;5.456;2023-04-15T08:41:45;101144.38;;;10.38;79.15
58622;BME280;44389;51.578;5.456;2023-04-15T08:44:14;101138.25;;;10.36;77.98
58622;BME280;44389;51.578;5.456;2023-04-15T08:46:40;101152.59;;;10.52;78.14
58622;BME280;44389;51.578;5.456;2023-04-15T08:49:09;101159.59;;;10.57;79.05
58622;BME280;44389;51.578;5.456;2023-04-15T08:51:34;101164.84;;;10.60;75.92
58622;BME280;44389;51.578;5.456;2023-04-15T08:54:01;101166.38;;;10.54;75.75
58622;BME280;44389;51.578;5.456;2023-04-15T08:56:27;101173.91;;;10.48;74.85
58622;BME280;44389;51.578;5.456;2023-04-15T08:58:52;101181.53;;;10.45;74.21
58622;BME280;44389;51.578;5.456;2023-04-15T09:01:18;101182.78;;;10.57;77.70
58622;BME280;44389;51.578;5.456;2023-04-15T09:03:43;101189.78;;;10.61;74.66
58622;BME280;44389;51.578;5.456;2023-04-15T09:06:09;101185.63;;;10.64;75.34
58622;BME280;44389;51.578;5.456;2023-04-15T09:08:34;101196.22;;;10.72;75.86
58622;BME280;44389;51.578;5.456;2023-04-15T09:11:03;101198.88;;;10.75;73.94
58622;BME280;44389;51.578;5.456;2023-04-15T09:13:29;101199.31;;;10.87;75.74
58622;BME280;44389;51.578;5.456;2023-04-15T09:15:55;101207.03;;;10.87;74.42
58622;BME280;44389;51.578;5.456;2023-04-15T09:18:29;101210.78;;;10.97;75.75
58622;BME280;44389;51.578;5.456;2023-04-15T09:20:55;101212.41;;;10.94;73.08
58622;BME280;44389;51.578;5.456;2023-04-15T09:23:29;101220.16;;;10.94;72.41
58622;BME280;44389;51.578;5.456;2023-04-15T09:25:56;101218.47;;;10.96;72.16
58622;BME280;44389;51.578;5.456;2023-04-15T09:28:24;101228.16;;;11.01;70.45
58622;BME280;44389;51.578;5.456;2023-04-15T09:30:59;101233.56;;;11.09;71.05
58622;BME280;44389;51.578;5.456;2023-04-15T09:33:26;101236.31;;;11.15;72.50
58622;BME280;44389;51.578;5.456;2023-04-15T09:36:00;101232.41;;;11.27;71.64
58622;BME280;44389;51.578;5.456;2023-04-15T09:38:26;101233.69;;;11.40;71.02
58622;BME280;44389;51.578;5.456;2023-04-15T09:40:52;101242.63;;;11.49;70.59
58622;BME280;44389;51.578;5.456;2023-04-15T09:43:17;101235.56;;;11.71;70.74
58622;BME280;44389;51.578;5.456;2023-04-15T09:45:47;101238.25;;;12.03;66.45
58622;BME280;44389;51.578;5.456;2023-04-15T09:48:15;101251.31;;;12.38;66.87
58622;BME280;44389;51.578;5.456;2023-04-15T09:50:41;101244.69;;;12.78;65.34
58622;BME280;44389;51.578;5.456;2023-04-15T09:53:10;101245.19;;;13.32;66.51
58622;BME280;44389;51.578;5.456;2023-04-15T09:55:43;101247.50;;;13.55;62.07
58622;BME280;44389;51.578;5.456;2023-04-15T09:58:17;101255.97;;;13.84;62.61
58622;BME280;44389;51.578;5.456;2023-04-15T10:00:42;101257.91;;;13.94;58.13
58622;BME280;44389;51.578;5.456;2023-04-15T10:03:08;101258.59;;;13.86;57.41
58622;BME280;44389;51.578;5.456;2023-04-15T10:05:33;101259.38;;;13.83;56.50
58622;BME280;44389;51.578;5.456;2023-04-15T10:07:59;101261.34;;;13.93;60.46
58622;BME280;44389;51.578;5.456;2023-04-15T10:10:25;101268.38;;;14.40;60.48
58622;BME280;44389;51.578;5.456;2023-04-15T10:12:51;101256.69;;;14.61;55.89
58622;BME280;44389;51.578;5.456;2023-04-15T10:15:17;101267.84;;;14.57;55.76
58622;BME280;44389;51.578;5.456;2023-04-15T10:17:44;101263.56;;;14.59;55.15
58622;BME280;44389;51.578;5.456;2023-04-15T10:20:09;101252.91;;;14.88;57.28
58622;BME280;44389;51.578;5.456;2023-04-15T10:22:36;101263.63;;;15.06;54.67
58622;BME280;44389;51.578;5.456;2023-04-15T10:25:02;101260.09;;;15.55;54.87
58622;BME280;44389;51.578;5.456;2023-04-15T10:27:28;101264.66;;;15.70;52.38
58622;BME280;44389;51.578;5.456;2023-04-15T10:29:55;101272.38;;;15.65;51.43
58622;BME280;44389;51.578;5.456;2023-04-15T10:32:21;101272.50;;;15.71;50.88
58622;BME280;44389;51.578;5.456;2023-04-15T10:34:48;101273.47;;;15.79;49.50
58622;BME280;44389;51.578;5.456;2023-04-15T10:37:24;101285.44;;;15.70;48.11
58622;BME280;44389;51.578;5.456;2023-04-15T10:39:57;101280.31;;;16.34;49.20
58622;BME280;44389;51.578;5.456;2023-04-15T10:42:22;101280.56;;;16.56;46.59
58622;BME280;44389;51.578;5.456;2023-04-15T10:44:49;101285.09;;;16.72;47.32
58622;BME280;44389;51.578;5.456;2023-04-15T10:47:17;101285.81;;;16.59;45.46
58622;BME280;44389;51.578;5.456;2023-04-15T10:49:51;101283.69;;;16.99;46.93
58622;BME280;44389;51.578;5.456;2023-04-15T10:52:25;101283.25;;;17.48;46.03
58622;BME280;44389;51.578;5.456;2023-04-15T10:55:14;101290.44;;;17.80;47.30
58622;BME280;44389;51.578;5.456;2023-04-15T10:57:41;101289.28;;;17.42;44.99
58622;BME280;44389;51.578;5.456;2023-04-15T11:05:07;101298.94;;;16.02;45.80
58622;BME280;44389;51.578;5.456;2023-04-15T11:13:04;101298.72;;;15.87;48.06
58622;BME280;44389;51.578;5.456;2023-04-15T11:15:37;101297.94;;;15.92;49.31
58622;BME280;44389;51.578;5.456;2023-04-15T11:18:25;101295.88;;;16.31;47.38
58622;BME280;44389;51.578;5.456;2023-04-15T11:20:54;101297.38;;;16.13;47.09
58622;BME280;44389;51.578;5.456;2023-04-15T11:23:42;101290.91;;;16.50;49.22
58622;BME280;44389;51.578;5.456;2023-04-15T11:26:10;101305.19;;;16.83;48.37
58622;BME280;44389;51.578;5.456;2023-04-15T11:28:40;101293.84;;;16.81;47.52
58622;BME280;44389;51.578;5.456;2023-04-15T11:33:35;101300.44;;;15.85;46.14
58622;BME280;44389;51.578;5.456;2023-04-15T11:36:01;101299.81;;;15.47;47.59
58622;BME280;44389;51.578;5.456;2023-04-15T11:38:28;101313.19;;;15.19;48.68
58622;BME280;44389;51.578;5.456;2023-04-15T11:40:53;101302.03;;;15.26;48.55
58622;BME280;44389;51.578;5.456;2023-04-15T11:43:20;101310.88;;;15.36;49.92
58622;BME280;44389;51.578;5.456;2023-04-15T11:46:00;101313.72;;;15.50;52.64
58622;BME280;44389;51.578;5.456;2023-04-15T11:48:31;101323.34;;;15.08;52.04
58622;BME280;44389;51.578;5.456;2023-04-15T11:51:07;101323.47;;;14.68;53.73
58622;BME280;44389;51.578;5.456;2023-04-15T11:53:46;101322.97;;;14.88;55.84
58622;BME280;44389;51.578;5.456;2023-04-15T11:56:22;101323.19;;;15.00;54.63
58622;BME280;44389;51.578;5.456;2023-04-15T11:58:51;101319.97;;;14.68;54.42
58622;BME280;44389;51.578;5.456;2023-04-15T12:01:17;101330.47;;;14.34;55.64
58622;BME280;44389;51.578;5.456;2023-04-15T12:03:45;101335.53;;;14.28;53.21
58622;BME280;44389;51.578;5.456;2023-04-15T12:09:11;101343.28;;;14.26;53.27
58622;BME280;44389;51.578;5.456;2023-04-15T12:11:49;101337.75;;;15.38;51.54
58622;BME280;44389;51.578;5.456;2023-04-15T12:14:30;101345.50;;;16.45;51.85
58622;BME280;44389;51.578;5.456;2023-04-15T12:16:57;101345.25;;;16.94;48.38
58622;BME280;44389;51.578;5.456;2023-04-15T12:19:30;101339.88;;;16.82;47.13
58622;BME280;44389;51.578;5.456;2023-04-15T12:22:01;101353.53;;;16.65;48.71
58622;BME280;44389;51.578;5.456;2023-04-15T12:24:26;101354.44;;;16.67;47.33
58622;BME280;44389;51.578;5.456;2023-04-15T12:26:54;101350.94;;;16.02;47.28
58622;BME280;44389;51.578;5.456;2023-04-15T12:29:25;101366.16;;;16.36;49.53
58622;BME280;44389;51.578;5.456;2023-04-15T12:31:56;101366.53;;;16.62;46.18
58622;BME280;44389;51.578;5.456;2023-04-15T12:34:29;101373.03;;;16.95;50.07
58622;BME280;44389;51.578;5.456;2023-04-15T12:36:55;101381.81;;;17.03;48.53
58622;BME280;44389;51.578;5.456;2023-04-15T12:39:23;101382.47;;;16.90;46.19
58622;BME280;44389;51.578;5.456;2023-04-15T12:41:49;101380.16;;;16.42;46.50
58622;BME280;44389;51.578;5.456;2023-04-15T12:44:14;101391.72;;;16.66;47.36
58622;BME280;44389;51.578;5.456;2023-04-15T12:46:39;101387.44;;;16.70;48.51
58622;BME280;44389;51.578;5.456;2023-04-15T12:49:05;101382.59;;;16.96;46.81
58622;BME280;44389;51.578;5.456;2023-04-15T12:51:31;101393.41;;;16.61;47.66
58622;BME280;44389;51.578;5.456;2023-04-15T12:53:56;101391.16;;;16.89;45.75
58622;BME280;44389;51.578;5.456;2023-04-15T12:56:22;101395.25;;;17.43;44.12
58622;BME280;44389;51.578;5.456;2023-04-15T12:58:48;101391.66;;;17.34;44.41
58622;BME280;44389;51.578;5.456;2023-04-15T13:01:13;101397.78;;;17.34;44.40
58622;BME280;44389;51.578;5.456;2023-04-15T13:03:38;101406.50;;;17.39;43.56
58622;BME280;44389;51.578;5.456;2023-04-15T13:06:04;101403.66;;;17.18;45.83